createdAt,value
2022-09-05T00:00:27.694Z,18.26
2022-09-05T00:01:27.995Z,18.26
2022-09-05T00:02:27.744Z,18.25
2022-09-05T00:03:27.923Z,18.23
2022-09-05T00:04:27.769Z,18.23
2022-09-05T00:05:27.685Z,18.21
2022-09-05T00:06:27.626Z,18.20
2022-09-05T00:07:36.070Z,18.20
2022-09-05T00:08:28.617Z,18.21
2022-09-05T00:09:27.783Z,18.18
2022-09-05T00:10:27.587Z,18.18
2022-09-05T00:11:43.043Z,18.15
2022-09-05T00:12:28.558Z,18.15
2022-09-05T00:13:27.559Z,18.17
2022-09-05T00:14:34.196Z,18.15
2022-09-05T00:15:28.519Z,18.14
2022-09-05T00:16:30.370Z,18.14
2022-09-05T00:17:34.217Z,18.12
2022-09-05T00:22:21.677Z,18.10
2022-09-05T00:23:41.576Z,18.10
2022-09-05T00:24:20.641Z,18.08
2022-09-05T00:24:29.933Z,18.05
2022-09-05T00:24:31.032Z,18.05
2022-09-05T00:24:34.504Z,18.03
2022-09-05T00:24:54.742Z,18.03
2022-09-05T00:25:31.792Z,18.03
2022-09-05T00:26:28.715Z,18.00
2022-09-05T00:27:27.381Z,18.00
2022-09-05T00:28:27.393Z,18.00
2022-09-05T00:29:46.493Z,17.99
2022-09-05T00:31:08.795Z,17.99
2022-09-05T00:31:54.851Z,18.00
2022-09-05T00:32:28.388Z,18.02
2022-09-05T00:33:27.469Z,18.02
2022-09-05T00:34:27.325Z,18.03
2022-09-05T00:35:28.315Z,18.03
2022-09-05T00:36:27.293Z,18.03
2022-09-05T00:37:27.281Z,18.03
2022-09-05T00:38:30.489Z,18.03
2022-09-05T00:39:28.261Z,18.03
2022-09-05T00:40:27.420Z,18.03
2022-09-05T00:41:27.226Z,18.03
2022-09-05T00:42:27.217Z,18.05
2022-09-05T00:43:27.228Z,18.05
2022-09-05T00:44:27.208Z,18.03
2022-09-05T00:45:27.177Z,18.05
2022-09-05T00:46:27.221Z,18.07
2022-09-05T00:47:27.180Z,18.05
2022-09-05T00:48:27.149Z,18.03
2022-09-05T00:49:27.178Z,18.05
2022-09-05T00:50:27.169Z,18.03
2022-09-05T00:51:29.190Z,18.05
2022-09-05T00:52:28.113Z,18.02
2022-09-05T00:53:27.129Z,18.02
2022-09-05T00:54:41.187Z,18.00
2022-09-05T00:55:28.060Z,17.99
2022-09-05T00:56:27.072Z,17.97
2022-09-05T00:57:27.049Z,17.96
2022-09-05T00:58:27.054Z,17.96
2022-09-05T00:59:28.022Z,17.93
2022-09-05T01:00:27.011Z,17.93
2022-09-05T01:01:27.161Z,17.90
2022-09-05T01:02:27.035Z,17.89
2022-09-05T01:03:26.995Z,17.86
2022-09-05T01:04:26.971Z,17.84
2022-09-05T01:05:26.957Z,17.82
2022-09-05T01:06:26.942Z,17.79
2022-09-05T01:07:26.933Z,17.79
2022-09-05T01:08:26.925Z,17.78
2022-09-05T01:09:26.935Z,17.77
2022-09-05T01:10:26.901Z,17.75
2022-09-05T01:11:47.889Z,17.72
2022-09-05T01:12:26.875Z,17.71
2022-09-05T01:13:26.866Z,17.66
2022-09-05T01:14:26.874Z,17.64
2022-09-05T01:15:27.064Z,17.63
2022-09-05T01:16:27.963Z,17.58
2022-09-05T01:17:26.827Z,17.56
2022-09-05T01:18:26.828Z,17.55
2022-09-05T01:19:26.797Z,17.49
2022-09-05T01:20:26.800Z,17.46
2022-09-05T01:21:26.778Z,17.40
2022-09-05T01:22:26.767Z,17.38
2022-09-05T01:23:26.767Z,17.34
2022-09-05T01:24:28.088Z,17.31
2022-09-05T01:25:26.768Z,17.25
2022-09-05T01:26:26.739Z,17.23
2022-09-05T01:27:26.727Z,17.18
2022-09-05T01:29:15.862Z,17.15
2022-09-05T01:29:27.758Z,17.11
2022-09-05T01:30:31.800Z,17.07
2022-09-05T01:31:27.801Z,17.07
2022-09-05T01:32:26.660Z,17.03
2022-09-05T01:33:26.667Z,17.01
2022-09-05T01:34:31.882Z,16.98
2022-09-05T01:35:27.634Z,16.96
2022-09-05T01:36:26.620Z,16.93
2022-09-05T01:37:33.574Z,16.89
2022-09-05T01:38:27.612Z,16.88
2022-09-05T01:40:12.551Z,16.85
2022-09-05T01:40:27.633Z,16.82
2022-09-05T01:41:26.622Z,16.82
2022-09-05T01:42:26.543Z,16.79
2022-09-05T01:43:26.660Z,16.79
2022-09-05T01:44:26.526Z,16.76
2022-09-05T01:45:29.459Z,16.75
2022-09-05T01:46:27.531Z,16.75
2022-09-05T01:47:30.973Z,16.71
2022-09-05T01:48:26.807Z,16.70
2022-09-05T01:49:26.474Z,16.67
2022-09-05T01:50:26.454Z,16.66
2022-09-05T01:51:28.200Z,16.63
2022-09-05T01:52:26.464Z,16.63
2022-09-05T01:53:26.614Z,16.61
2022-09-05T01:54:29.873Z,16.58
2022-09-05T01:55:26.406Z,16.56
2022-09-05T01:56:26.431Z,16.56
2022-09-05T01:57:26.384Z,16.52
2022-09-05T01:58:26.399Z,16.50
2022-09-05T01:59:26.378Z,16.49
2022-09-05T02:00:26.347Z,16.48
2022-09-05T02:01:32.396Z,16.48
2022-09-05T02:02:27.372Z,16.46
2022-09-05T02:03:26.410Z,16.45
2022-09-05T02:04:26.319Z,16.46
2022-09-05T02:05:47.360Z,16.46
2022-09-05T02:06:27.330Z,16.46
2022-09-05T02:07:31.085Z,16.48
2022-09-05T02:08:27.289Z,16.49
2022-09-05T02:09:26.248Z,16.50
2022-09-05T02:10:26.240Z,16.49
2022-09-05T02:11:36.006Z,16.50
2022-09-05T02:12:27.219Z,16.50
2022-09-05T02:13:26.290Z,16.49
2022-09-05T02:14:33.728Z,16.50
2022-09-05T02:15:27.218Z,16.50
2022-09-05T02:16:26.193Z,16.52
2022-09-05T02:17:49.991Z,16.56
2022-09-05T02:18:27.161Z,16.57
2022-09-05T02:19:26.133Z,16.58
2022-09-05T02:20:26.136Z,16.60
2022-09-05T02:21:26.111Z,16.60
2022-09-05T02:22:26.103Z,16.61
2022-09-05T02:23:41.751Z,16.63
2022-09-05T02:24:27.103Z,16.64
2022-09-05T02:26:01.239Z,16.66
2022-09-05T02:26:27.064Z,16.68
2022-09-05T02:27:46.151Z,16.70
2022-09-05T02:28:27.085Z,16.71
2022-09-05T02:29:29.437Z,16.71
2022-09-05T02:30:26.028Z,16.73
2022-09-05T02:31:26.100Z,16.76
2022-09-05T02:32:25.996Z,16.76
2022-09-05T02:33:26.067Z,16.78
2022-09-05T02:34:25.978Z,16.81
2022-09-05T02:35:25.977Z,16.81
2022-09-05T02:36:25.956Z,16.82
2022-09-05T02:38:43.956Z,16.82
2022-09-05T02:44:00.176Z,16.82
2022-09-05T02:45:00.521Z,16.82
2022-09-05T02:45:08.516Z,16.85
2022-09-05T02:45:15.040Z,16.83
2022-09-05T02:45:18.725Z,16.85
2022-09-05T02:45:21.363Z,16.83
2022-09-05T02:45:23.920Z,16.83
2022-09-05T02:45:27.989Z,16.83
2022-09-05T02:46:25.876Z,16.83
2022-09-05T02:47:25.830Z,16.82
2022-09-05T02:48:25.840Z,16.81
2022-09-05T02:51:20.114Z,16.79
2022-09-05T02:56:08.239Z,16.78
2022-09-05T02:56:31.672Z,16.79
2022-09-05T02:57:32.899Z,16.75
2022-09-05T02:57:37.435Z,16.75
2022-09-05T02:57:38.561Z,16.75
2022-09-05T02:57:42.316Z,16.76
2022-09-05T02:57:46.493Z,16.78
2022-09-05T02:58:04.831Z,16.73
2022-09-05T02:58:26.730Z,16.71
2022-09-05T02:59:35.890Z,16.73
2022-09-05T03:00:26.682Z,16.73
2022-09-05T03:01:25.726Z,16.71
2022-09-05T03:02:26.971Z,16.71
2022-09-05T03:03:25.663Z,16.73
2022-09-05T03:04:25.672Z,16.73
2022-09-05T03:05:25.626Z,16.73
2022-09-05T03:06:34.642Z,16.71
2022-09-05T03:07:26.691Z,16.75
2022-09-05T03:08:25.664Z,16.73
2022-09-05T03:09:25.595Z,16.75
2022-09-05T03:10:34.619Z,16.73
2022-09-05T03:11:26.558Z,16.71
2022-09-05T03:12:29.347Z,16.73
2022-09-05T03:13:25.556Z,16.71
2022-09-05T03:14:25.541Z,16.71
2022-09-05T03:15:25.517Z,16.70
2022-09-05T03:16:25.540Z,16.70
2022-09-05T03:17:25.499Z,16.70
2022-09-05T03:18:25.487Z,16.67
2022-09-05T03:19:25.468Z,16.67
2022-09-05T03:20:25.468Z,16.66
2022-09-05T03:21:25.466Z,16.66
2022-09-05T03:22:25.451Z,16.64
2022-09-05T03:23:25.438Z,16.63
2022-09-05T03:24:26.417Z,16.64
2022-09-05T03:25:25.409Z,16.64
2022-09-05T03:26:25.399Z,16.63
2022-09-05T03:27:29.165Z,16.63
2022-09-05T03:28:25.501Z,16.63
2022-09-05T03:29:25.369Z,16.63
2022-09-05T03:30:25.370Z,16.63
2022-09-05T03:31:25.373Z,16.63
2022-09-05T03:32:25.341Z,16.63
2022-09-05T03:33:25.341Z,16.60
2022-09-05T03:34:25.313Z,16.60
2022-09-05T03:35:25.293Z,16.58
2022-09-05T03:36:25.293Z,16.57
2022-09-05T03:37:25.305Z,16.56
2022-09-05T03:38:25.328Z,16.56
2022-09-05T03:39:25.339Z,16.56
2022-09-05T03:40:25.253Z,16.53
2022-09-05T03:41:25.242Z,16.53
2022-09-05T03:42:30.417Z,16.52
2022-09-05T03:43:25.216Z,16.50
2022-09-05T03:44:25.205Z,16.50
2022-09-05T03:45:36.559Z,16.50
2022-09-05T03:46:26.302Z,16.49
2022-09-05T03:47:25.178Z,16.50
2022-09-05T03:48:28.673Z,16.48
2022-09-05T03:51:39.793Z,16.48
2022-09-05T03:54:10.598Z,16.48
2022-09-05T03:57:06.998Z,16.48
2022-09-05T03:57:15.964Z,16.45
2022-09-05T03:57:18.178Z,16.46
2022-09-05T03:57:19.944Z,16.48
2022-09-05T03:57:24.719Z,16.48
2022-09-05T03:57:25.424Z,16.48
2022-09-05T03:57:38.476Z,16.46
2022-09-05T03:58:42.013Z,16.46
2022-09-05T03:59:26.041Z,16.46
2022-09-05T04:00:25.029Z,16.45
2022-09-05T04:03:32.930Z,16.43
2022-09-05T04:08:07.002Z,16.45
2022-09-05T04:08:13.433Z,16.42
2022-09-05T04:08:15.054Z,16.43
2022-09-05T04:08:15.899Z,16.42
2022-09-05T04:08:17.180Z,16.43
2022-09-05T04:08:26.624Z,16.42
2022-09-05T04:08:38.637Z,16.41
2022-09-05T04:09:49.544Z,16.42
2022-09-05T04:10:25.976Z,16.42
2022-09-05T04:11:24.924Z,16.41
2022-09-05T04:12:24.940Z,16.41
2022-09-05T04:13:24.891Z,16.41
2022-09-05T04:14:24.890Z,16.39
2022-09-05T04:15:24.873Z,16.38
2022-09-05T04:16:24.901Z,16.39
2022-09-05T04:17:24.853Z,16.41
2022-09-05T04:18:28.497Z,16.39
2022-09-05T04:19:25.824Z,16.41
2022-09-05T04:20:24.816Z,16.41
2022-09-05T04:21:24.813Z,16.42
2022-09-05T04:22:24.798Z,16.41
2022-09-05T04:23:25.097Z,16.43
2022-09-05T04:24:24.773Z,16.42
2022-09-05T04:25:24.758Z,16.43
2022-09-05T04:26:24.768Z,16.45
2022-09-05T04:27:27.749Z,16.42
2022-09-05T04:28:24.852Z,16.43
2022-09-05T04:29:24.715Z,16.43
2022-09-05T04:30:38.937Z,16.42
2022-09-05T04:31:25.735Z,16.42
2022-09-05T04:32:24.738Z,16.43
2022-09-05T04:33:36.245Z,16.43
2022-09-05T04:34:25.663Z,16.43
2022-09-05T04:35:24.647Z,16.42
2022-09-05T04:36:24.636Z,16.43
2022-09-05T04:37:24.647Z,16.43
2022-09-05T04:38:24.666Z,16.43
2022-09-05T04:39:24.655Z,16.43
2022-09-05T04:40:24.590Z,16.45
2022-09-05T04:41:39.049Z,16.45
2022-09-05T04:42:25.579Z,16.46
2022-09-05T04:43:24.549Z,16.46
2022-09-05T04:44:24.550Z,16.48
2022-09-05T04:45:24.668Z,16.48
2022-09-05T04:46:24.614Z,16.48
2022-09-05T04:47:24.510Z,16.48
2022-09-05T04:48:24.765Z,16.49
2022-09-05T04:49:24.629Z,16.49
2022-09-05T04:50:24.492Z,16.49
2022-09-05T04:51:24.461Z,16.49
2022-09-05T04:52:31.106Z,16.49
2022-09-05T04:53:25.442Z,16.49
2022-09-05T04:54:24.446Z,16.52
2022-09-05T04:55:25.434Z,16.50
2022-09-05T04:56:24.422Z,16.50
2022-09-05T04:57:24.476Z,16.52
2022-09-05T04:58:53.486Z,16.52
2022-09-05T05:05:02.407Z,16.53
2022-09-05T05:06:00.969Z,16.56
2022-09-05T05:06:03.698Z,16.52
2022-09-05T05:06:13.504Z,16.53
2022-09-05T05:06:14.661Z,16.56
2022-09-05T05:06:16.274Z,16.57
2022-09-05T05:06:19.742Z,16.56
2022-09-05T05:06:38.084Z,16.56
2022-09-05T05:07:25.399Z,16.58
2022-09-05T05:08:37.819Z,16.56
2022-09-05T05:09:25.276Z,16.60
2022-09-05T05:11:51.100Z,16.60
2022-09-05T05:14:44.443Z,16.60
2022-09-05T05:17:56.049Z,16.63
2022-09-05T05:17:57.987Z,16.64
2022-09-05T05:18:00.667Z,16.61
2022-09-05T05:18:08.796Z,16.64
2022-09-05T05:18:11.658Z,16.66
2022-09-05T05:18:14.532Z,16.66
2022-09-05T05:18:49.183Z,16.68
2022-09-05T05:19:25.370Z,16.68
2022-09-05T05:20:42.840Z,16.71
2022-09-05T05:21:25.149Z,16.71
2022-09-05T05:22:24.140Z,16.73
2022-09-05T05:23:24.291Z,16.76
2022-09-05T05:24:24.111Z,16.75
2022-09-05T05:25:24.103Z,16.76
2022-09-05T05:26:24.082Z,16.78
2022-09-05T05:27:24.082Z,16.81
2022-09-05T05:28:25.183Z,16.81
2022-09-05T05:29:24.076Z,16.82
2022-09-05T05:30:24.082Z,16.83
2022-09-05T05:31:24.069Z,16.85
2022-09-05T05:32:25.529Z,16.86
2022-09-05T05:33:25.013Z,16.88
2022-09-05T05:34:25.098Z,16.88
2022-09-05T05:35:23.993Z,16.89
2022-09-05T05:36:23.982Z,16.89
2022-09-05T05:37:23.982Z,16.93
2022-09-05T05:38:23.991Z,16.93
2022-09-05T05:39:24.014Z,16.96
2022-09-05T05:40:23.935Z,16.96
2022-09-05T05:41:23.988Z,16.97
2022-09-05T05:42:23.905Z,16.98
2022-09-05T05:43:23.924Z,16.98
2022-09-05T05:44:23.887Z,17.01
2022-09-05T05:45:23.895Z,17.03
2022-09-05T05:46:23.923Z,17.04
2022-09-05T05:47:31.772Z,17.06
2022-09-05T05:48:25.034Z,17.08
2022-09-05T05:49:23.897Z,17.08
2022-09-05T05:50:23.841Z,17.11
2022-09-05T05:51:34.656Z,17.12
2022-09-05T05:52:24.807Z,17.16
2022-09-05T05:53:29.161Z,17.18
2022-09-05T05:54:24.778Z,17.19
2022-09-05T05:55:51.428Z,17.22
2022-09-05T05:56:24.768Z,17.22
2022-09-05T05:57:23.738Z,17.25
2022-09-05T05:58:23.788Z,17.25
2022-09-05T05:59:24.963Z,17.28
2022-09-05T06:00:27.399Z,17.30
2022-09-05T06:01:37.455Z,17.31
2022-09-05T06:02:24.783Z,17.34
2022-09-05T06:03:26.209Z,17.36
2022-09-05T06:04:23.701Z,17.38
2022-09-05T06:05:23.651Z,17.40
2022-09-05T06:06:23.657Z,17.43
2022-09-05T06:07:23.642Z,17.43
2022-09-05T06:10:55.283Z,17.46
2022-09-05T06:14:48.099Z,17.48
2022-09-05T06:14:52.895Z,17.49
2022-09-05T06:14:57.252Z,17.58
2022-09-05T06:15:01.461Z,17.55
2022-09-05T06:15:01.623Z,17.62
2022-09-05T06:15:01.763Z,17.54
2022-09-05T06:15:25.158Z,17.62
2022-09-05T06:16:23.622Z,17.66
2022-09-05T06:17:27.988Z,17.71
2022-09-05T06:18:24.516Z,17.75
2022-09-05T06:19:23.523Z,17.78
2022-09-05T06:21:56.135Z,17.82
2022-09-05T06:22:11.512Z,17.90
2022-09-05T06:22:24.484Z,17.93
2022-09-05T06:23:36.677Z,17.99
2022-09-05T06:24:24.446Z,18.07
2022-09-05T06:25:23.435Z,18.11
2022-09-05T06:26:23.477Z,18.17
2022-09-05T06:27:23.415Z,18.27
2022-09-05T06:28:23.408Z,18.33
2022-09-05T06:29:23.388Z,18.41
2022-09-05T06:30:23.378Z,18.51
2022-09-05T06:31:31.129Z,18.60
2022-09-05T06:32:24.379Z,18.67
2022-09-05T06:33:23.387Z,18.78
2022-09-05T06:34:35.551Z,18.91
2022-09-05T06:35:24.320Z,19.02
2022-09-05T06:36:23.317Z,19.13
2022-09-05T06:37:23.339Z,19.23
2022-09-05T06:38:23.292Z,19.33
2022-09-05T06:39:23.372Z,19.50
2022-09-05T06:40:23.498Z,19.63
2022-09-05T06:41:24.012Z,19.78
2022-09-05T06:42:28.505Z,19.98
2022-09-05T06:43:24.396Z,20.16
2022-09-05T06:44:23.946Z,20.35
2022-09-05T06:45:27.673Z,20.57
2022-09-05T06:47:22.856Z,20.73
2022-09-05T06:47:33.493Z,20.88
2022-09-05T06:48:38.274Z,21.01
2022-09-05T06:49:31.047Z,21.19
2022-09-05T06:50:27.828Z,21.32
2022-09-05T06:51:23.343Z,21.49
2022-09-05T06:52:29.711Z,21.64
2022-09-05T06:53:24.170Z,21.79
2022-09-05T06:54:23.120Z,21.99
2022-09-05T06:55:23.098Z,22.14
2022-09-05T06:56:26.252Z,22.25
2022-09-05T06:57:23.078Z,22.33
2022-09-05T06:58:23.090Z,22.45
2022-09-05T06:59:23.063Z,22.57
2022-09-05T07:00:23.106Z,22.67
2022-09-05T07:01:23.173Z,22.76
2022-09-05T07:02:23.877Z,22.82
2022-09-05T07:03:24.229Z,22.85
2022-09-05T07:05:05.239Z,22.83
2022-09-05T07:05:38.670Z,22.82
2022-09-05T07:06:23.982Z,22.80
2022-09-05T07:07:23.993Z,22.79
2022-09-05T07:08:36.167Z,22.75
2022-09-05T07:09:23.951Z,22.75
2022-09-05T07:10:37.873Z,22.75
2022-09-05T07:11:23.924Z,22.80
2022-09-05T07:12:22.954Z,22.86
2022-09-05T07:13:22.969Z,22.92
2022-09-05T07:14:22.906Z,23.04
2022-09-05T07:15:22.880Z,23.13
2022-09-05T07:16:35.664Z,23.16
2022-09-05T07:17:23.898Z,23.15
2022-09-05T07:18:22.848Z,23.16
2022-09-05T07:19:22.839Z,23.13
2022-09-05T07:20:22.911Z,23.10
2022-09-05T07:21:26.145Z,23.09
2022-09-05T07:22:47.631Z,23.05
2022-09-05T07:23:57.790Z,23.09
2022-09-05T07:24:53.433Z,23.13
2022-09-05T07:25:26.444Z,23.25
2022-09-05T07:26:51.498Z,23.39
2022-09-05T07:27:25.489Z,23.57
2022-09-05T07:28:28.582Z,23.79
2022-09-05T07:29:23.733Z,23.97
2022-09-05T07:30:22.732Z,24.18
2022-09-05T07:31:37.046Z,24.43
2022-09-05T07:32:24.677Z,24.64
2022-09-05T07:33:22.751Z,24.88
2022-09-05T07:34:22.694Z,25.14
2022-09-05T07:35:22.664Z,25.36
2022-09-05T07:36:22.656Z,25.58
2022-09-05T07:37:22.663Z,25.77
2022-09-05T07:38:22.637Z,25.98
2022-09-05T07:39:28.823Z,26.23
2022-09-05T07:40:25.168Z,26.44
2022-09-05T07:41:22.600Z,26.60
2022-09-05T07:42:22.607Z,26.87
2022-09-05T07:43:22.684Z,27.10
2022-09-05T07:44:22.606Z,27.31
2022-09-05T07:45:22.688Z,27.49
2022-09-05T07:46:22.598Z,27.63
2022-09-05T07:47:22.560Z,27.78
2022-09-05T07:48:22.530Z,27.94
2022-09-05T07:49:23.521Z,28.11
2022-09-05T07:53:16.717Z,28.30
2022-09-05T07:56:47.607Z,28.41
2022-09-05T07:56:58.452Z,28.49
2022-09-05T07:57:03.849Z,28.93
2022-09-05T07:57:10.577Z,28.71
2022-09-05T07:57:13.254Z,28.85
2022-09-05T07:57:15.618Z,28.56
2022-09-05T07:57:30.780Z,29.06
2022-09-05T07:58:23.426Z,29.18
2022-09-05T07:59:22.418Z,29.27
2022-09-05T08:00:25.479Z,29.41
2022-09-05T08:01:23.511Z,29.52
2022-09-05T08:02:22.399Z,29.63
2022-09-05T08:03:22.425Z,29.70
2022-09-05T08:04:22.459Z,29.76
2022-09-05T08:05:34.306Z,29.78
2022-09-05T08:07:34.756Z,29.85
2022-09-05T08:07:49.271Z,29.92
2022-09-05T08:08:23.322Z,29.97
2022-09-05T08:10:05.968Z,30.05
2022-09-05T08:10:30.903Z,30.15
2022-09-05T08:11:26.245Z,30.22
2022-09-05T08:12:28.078Z,30.32
2022-09-05T08:13:27.235Z,30.42
2022-09-05T08:14:44.297Z,30.53
2022-09-05T08:15:23.245Z,30.61
2022-09-05T08:16:22.267Z,30.70
2022-09-05T08:17:27.483Z,30.77
2022-09-05T08:18:23.228Z,30.84
2022-09-05T08:19:22.227Z,30.91
2022-09-05T08:20:22.208Z,31.01
2022-09-05T08:21:26.642Z,31.06
2022-09-05T08:22:23.183Z,31.10
2022-09-05T08:23:22.198Z,31.17
2022-09-05T08:24:22.166Z,31.23
2022-09-05T08:25:22.162Z,31.31
2022-09-05T08:26:22.141Z,31.35
2022-09-05T08:27:22.140Z,31.38
2022-09-05T08:28:22.171Z,31.44
2022-09-05T08:29:22.121Z,31.50
2022-09-05T08:30:26.130Z,31.53
2022-09-05T08:31:23.239Z,31.58
2022-09-05T08:32:22.093Z,31.61
2022-09-05T08:33:22.073Z,31.61
2022-09-05T08:34:24.780Z,31.57
2022-09-05T08:35:23.061Z,31.56
2022-09-05T08:36:22.036Z,31.61
2022-09-05T08:37:22.084Z,31.57
2022-09-05T08:38:22.017Z,31.58
2022-09-05T08:39:22.049Z,31.61
2022-09-05T08:40:22.062Z,31.63
2022-09-05T08:41:26.060Z,31.65
2022-09-05T08:42:23.001Z,31.68
2022-09-05T08:45:46.372Z,31.73
2022-09-05T08:46:35.435Z,31.72
2022-09-05T08:46:42.293Z,31.75
2022-09-05T08:46:44.402Z,31.72
2022-09-05T08:47:22.997Z,31.73
2022-09-05T08:48:21.931Z,31.75
2022-09-05T08:49:37.906Z,31.78
2022-09-05T08:50:26.800Z,31.80
2022-09-05T08:51:21.915Z,31.84
2022-09-05T08:52:21.905Z,31.80
2022-09-05T08:53:45.217Z,31.76
2022-09-05T08:54:22.866Z,31.78
2022-09-05T08:55:21.876Z,31.81
2022-09-05T08:56:21.857Z,31.85
2022-09-05T08:57:21.847Z,31.89
2022-09-05T08:58:21.934Z,31.91
2022-09-05T08:59:28.474Z,31.96
2022-09-05T09:00:24.941Z,31.99
2022-09-05T09:01:22.868Z,32.04
2022-09-05T09:02:47.590Z,32.08
2022-09-05T09:03:25.998Z,32.06
2022-09-05T09:04:26.717Z,32.04
2022-09-05T09:05:22.761Z,32.03
2022-09-05T09:06:21.774Z,32.03
2022-09-05T09:07:47.184Z,31.96
2022-09-05T09:08:22.740Z,31.92
2022-09-05T09:09:21.732Z,31.92
2022-09-05T09:10:25.630Z,31.95
2022-09-05T09:11:21.723Z,31.96
2022-09-05T09:12:21.715Z,32.00
2022-09-05T09:13:21.742Z,32.03
2022-09-05T09:14:30.510Z,32.08
2022-09-05T09:15:22.666Z,32.11
2022-09-05T09:16:21.720Z,32.15
2022-09-05T09:17:21.666Z,32.19
2022-09-05T09:18:21.657Z,32.22
2022-09-05T09:19:28.951Z,32.26
2022-09-05T09:20:22.628Z,32.32
2022-09-05T09:21:21.626Z,32.35
2022-09-05T09:22:21.648Z,32.38
2022-09-05T09:23:40.467Z,32.35
2022-09-05T09:24:22.580Z,32.32
2022-09-05T09:25:25.894Z,32.33
2022-09-05T09:26:24.612Z,32.37
2022-09-05T09:27:27.258Z,32.33
2022-09-05T09:28:47.394Z,32.32
2022-09-05T09:29:22.544Z,32.26
2022-09-05T09:30:21.531Z,31.76
2022-09-05T09:31:21.608Z,31.06
2022-09-05T09:32:21.543Z,30.46
2022-09-05T09:33:21.543Z,30.02
2022-09-05T09:34:22.494Z,29.71
2022-09-05T09:35:21.499Z,29.48
2022-09-05T09:36:21.475Z,29.26
2022-09-05T09:37:24.189Z,29.18
2022-09-05T09:38:22.514Z,29.15
2022-09-05T09:39:37.400Z,29.12
2022-09-05T09:40:22.533Z,29.16
2022-09-05T09:41:21.437Z,29.21
2022-09-05T09:42:33.221Z,29.23
2022-09-05T09:43:22.431Z,29.23
2022-09-05T09:44:21.409Z,29.27
2022-09-05T09:45:28.015Z,29.18
2022-09-05T09:46:22.439Z,29.06
2022-09-05T09:47:21.389Z,28.98
2022-09-05T09:48:21.444Z,29.04
2022-09-05T09:49:23.157Z,29.04
2022-09-05T09:50:21.353Z,28.98
2022-09-05T09:51:21.351Z,28.89
2022-09-05T09:52:21.474Z,28.86
2022-09-05T09:53:21.333Z,28.89
2022-09-05T09:54:21.351Z,29.00
2022-09-05T09:55:21.609Z,29.14
2022-09-05T09:56:21.321Z,29.16
2022-09-05T09:57:21.305Z,29.16
2022-09-05T09:58:22.497Z,29.19
2022-09-05T09:59:21.276Z,29.26
2022-09-05T10:00:21.269Z,29.42
2022-09-05T10:01:36.569Z,29.58
2022-09-05T10:05:18.246Z,29.70
2022-09-05T10:07:54.558Z,29.80
2022-09-05T10:10:35.548Z,29.86
2022-09-05T10:10:40.491Z,29.92
2022-09-05T10:10:46.659Z,29.65
2022-09-05T10:10:49.905Z,29.76
2022-09-05T10:10:54.004Z,29.55
2022-09-05T10:11:09.181Z,29.86
2022-09-05T10:11:09.669Z,29.43
2022-09-05T10:11:48.537Z,29.30
2022-09-05T10:12:22.282Z,29.28
2022-09-05T10:13:21.227Z,29.42
2022-09-05T10:14:33.833Z,29.48
2022-09-05T10:15:31.694Z,29.57
2022-09-05T10:16:22.182Z,29.55
2022-09-05T10:17:21.148Z,29.58
2022-09-05T10:18:24.042Z,29.61
2022-09-05T10:20:07.901Z,29.68
2022-09-05T10:20:26.105Z,29.65
2022-09-05T10:21:22.069Z,29.53
2022-09-05T10:22:37.399Z,29.46
2022-09-05T10:23:22.523Z,29.51
2022-09-05T10:24:21.049Z,29.58
2022-09-05T10:25:21.065Z,29.68
2022-09-05T10:26:21.037Z,29.74
2022-09-05T10:27:21.021Z,29.74
2022-09-05T10:28:21.040Z,29.76
2022-09-05T10:29:36.891Z,29.76
2022-09-05T10:30:26.654Z,29.86
2022-09-05T10:33:03.806Z,29.98
2022-09-05T10:35:09.967Z,30.04
2022-09-05T10:35:10.122Z,30.11
2022-09-05T10:35:13.893Z,30.24
2022-09-05T10:35:23.926Z,30.46
2022-09-05T10:36:20.982Z,30.51
2022-09-05T10:37:20.935Z,30.42
2022-09-05T10:38:20.953Z,30.29
2022-09-05T10:39:21.216Z,30.16
2022-09-05T10:40:20.929Z,30.05
2022-09-05T10:41:22.924Z,30.01
2022-09-05T10:42:20.894Z,30.02
2022-09-05T10:43:20.979Z,30.04
2022-09-05T10:44:20.899Z,30.10
2022-09-05T10:45:34.286Z,30.34
2022-09-05T10:46:47.002Z,30.76
2022-09-05T10:47:21.932Z,31.01
2022-09-05T10:48:20.845Z,31.20
2022-09-05T10:49:20.849Z,31.29
2022-09-05T10:50:20.842Z,31.36
2022-09-05T10:51:27.146Z,31.53
2022-09-05T10:52:21.838Z,31.51
2022-09-05T10:53:20.870Z,31.28
2022-09-05T10:54:20.803Z,31.02
2022-09-05T10:55:20.789Z,30.82
2022-09-05T10:56:20.781Z,30.64
2022-09-05T10:57:20.761Z,30.38
2022-09-05T10:58:26.786Z,30.26
2022-09-05T11:00:36.822Z,30.29
2022-09-05T11:02:20.275Z,30.47
2022-09-05T11:02:29.727Z,30.58
2022-09-05T11:02:34.722Z,30.53
2022-09-05T11:03:22.993Z,30.42
2022-09-05T11:04:20.813Z,30.34
2022-09-05T11:05:20.764Z,30.19
2022-09-05T11:06:24.635Z,30.11
2022-09-05T11:07:27.938Z,29.95
2022-09-05T11:08:21.675Z,29.71
2022-09-05T11:09:20.678Z,29.53
2022-09-05T11:10:20.665Z,29.42
2022-09-05T11:11:28.358Z,29.24
2022-09-05T11:12:21.638Z,29.05
2022-09-05T11:13:20.683Z,28.86
2022-09-05T11:14:26.932Z,28.88
2022-09-05T11:15:21.626Z,28.96
2022-09-05T11:16:20.867Z,29.11
2022-09-05T11:17:20.599Z,29.33
2022-09-05T11:18:20.589Z,29.57
2022-09-05T11:19:21.599Z,29.70
2022-09-05T11:20:34.973Z,29.74
2022-09-05T11:21:21.559Z,29.78
2022-09-05T11:22:23.946Z,29.82
2022-09-05T11:23:20.578Z,29.97
2022-09-05T11:24:24.231Z,30.22
2022-09-05T11:25:28.218Z,30.35
2022-09-05T11:26:21.558Z,30.29
2022-09-05T11:27:25.494Z,30.26
2022-09-05T11:28:21.496Z,30.29
2022-09-05T11:29:20.524Z,30.27
2022-09-05T11:30:28.418Z,30.20
2022-09-05T11:31:21.653Z,30.20
2022-09-05T11:36:03.967Z,30.17
2022-09-05T11:39:46.768Z,29.85
2022-09-05T11:39:47.232Z,29.86
2022-09-05T11:39:59.173Z,30.13
2022-09-05T11:39:59.544Z,30.01
2022-09-05T11:40:07.349Z,30.13
2022-09-05T11:40:07.647Z,30.00
2022-09-05T11:40:09.610Z,30.04
2022-09-05T11:40:24.956Z,30.13
2022-09-05T11:41:21.967Z,30.10
2022-09-05T11:42:20.378Z,30.17
2022-09-05T11:43:20.381Z,30.38
2022-09-05T11:44:25.676Z,30.39
2022-09-05T11:45:21.360Z,30.34
2022-09-05T11:46:20.410Z,30.49
2022-09-05T11:47:30.059Z,30.51
2022-09-05T11:48:21.381Z,30.51
2022-09-05T11:49:20.335Z,30.55
2022-09-05T11:50:20.320Z,30.70
2022-09-05T11:51:20.314Z,30.72
2022-09-05T11:52:21.295Z,30.95
2022-09-05T11:53:20.294Z,31.26
2022-09-05T11:54:20.304Z,31.23
2022-09-05T11:55:21.252Z,31.14
2022-09-05T11:56:20.274Z,31.14
2022-09-05T11:57:33.330Z,31.16
2022-09-05T11:58:45.365Z,31.14
2022-09-05T11:59:33.275Z,31.20
2022-09-05T12:00:31.666Z,31.20
2022-09-05T12:01:42.283Z,31.17
2022-09-05T12:02:24.038Z,31.17
2022-09-05T12:03:57.729Z,31.34
2022-09-05T12:04:21.237Z,31.19
2022-09-05T12:05:49.971Z,30.98
2022-09-05T12:06:21.273Z,30.76
2022-09-05T12:07:31.599Z,30.65
2022-09-05T12:08:21.268Z,30.54
2022-09-05T12:09:24.450Z,30.55
2022-09-05T12:10:46.074Z,30.47
2022-09-05T12:11:21.149Z,30.39
2022-09-05T12:12:39.402Z,30.45
2022-09-05T12:13:21.745Z,30.51
2022-09-05T12:14:25.470Z,30.47
2022-09-05T12:15:21.111Z,30.53
2022-09-05T12:16:20.162Z,30.72
2022-09-05T12:17:21.101Z,30.82
2022-09-05T12:18:21.600Z,30.72
2022-09-05T12:19:20.218Z,30.60
2022-09-05T12:20:22.256Z,30.42
2022-09-05T12:21:20.133Z,30.32
2022-09-05T12:22:23.821Z,30.49
2022-09-05T12:23:39.945Z,30.49
2022-09-05T12:25:15.853Z,30.38
2022-09-05T12:27:36.722Z,30.16
2022-09-05T12:27:41.872Z,29.78
2022-09-05T12:27:42.869Z,29.94
2022-09-05T12:29:26.195Z,29.71
2022-09-05T12:29:29.406Z,29.78
2022-09-05T12:30:20.996Z,29.98
2022-09-05T12:32:59.461Z,30.60
2022-09-05T12:36:02.389Z,30.86
2022-09-05T12:36:08.152Z,31.13
2022-09-05T12:40:43.289Z,31.07
2022-09-05T12:40:45.164Z,30.98
2022-09-05T12:40:54.159Z,30.97
2022-09-05T12:40:57.747Z,31.31
2022-09-05T12:41:36.612Z,31.56
2022-09-05T12:41:43.499Z,31.57
2022-09-05T12:42:08.242Z,31.07
2022-09-05T12:42:10.154Z,30.29
2022-09-05T12:42:25.969Z,31.50
2022-09-05T12:44:39.059Z,31.31
2022-09-05T12:44:39.737Z,31.12
2022-09-05T12:45:25.449Z,31.01
2022-09-05T12:46:24.185Z,31.07
2022-09-05T12:47:21.264Z,31.14
2022-09-05T12:48:19.869Z,31.06
2022-09-05T12:49:19.833Z,30.89
2022-09-05T12:50:19.846Z,30.83
2022-09-05T12:51:46.396Z,30.92
2022-09-05T12:52:20.805Z,31.16